Time;durP1;ratioP1;P1;durP2;ratioP2;P2;SDS_P1;SDS_P2;PMS_P1;PMS_P2;Temp;Humidity;BMP_temperature;BMP_pressure;BME280_temperature;BME280_humidity;BME280_pressure;Samples;Min_cycle;Max_cycle;Signal;HPM_P1;HPM_P2
2023/01/30 00:02:10;;;;;;;62.40;30.17;;;3.90;99.90;;;;;;5025530;28;20408;-73
2023/01/30 00:04:35;;;;;;;67.57;30.95;;;3.90;99.90;;;;;;5016252;28;20029;-76
2023/01/30 00:07:01;;;;;;;66.55;30.35;;;4.00;99.90;;;;;;5037503;28;20033;-76
2023/01/30 00:09:27;;;;;;;64.00;31.48;;;4.00;99.90;;;;;;5010551;28;20038;-74
2023/01/30 00:11:53;;;;;;;62.75;31.30;;;4.10;99.90;;;;;;5028391;28;20057;-75
2023/01/30 00:14:19;;;;;;;61.78;31.05;;;4.10;99.90;;;;;;5024338;28;20033;-74
2023/01/30 00:16:45;;;;;;;66.97;32.45;;;4.10;99.90;;;;;;5013467;28;20042;-76
2023/01/30 00:19:11;;;;;;;72.50;32.33;;;4.10;99.90;;;;;;5015257;28;20030;-76
2023/01/30 00:21:36;;;;;;;66.55;32.35;;;4.10;99.90;;;;;;5027393;28;20505;-74
2023/01/30 00:24:02;;;;;;;66.07;32.58;;;4.10;99.90;;;;;;5025726;28;20036;-74
2023/01/30 00:26:28;;;;;;;66.82;31.58;;;4.10;99.90;;;;;;5026844;28;20052;-74
2023/01/30 00:28:54;;;;;;;67.15;32.42;;;4.10;99.90;;;;;;5026681;28;20025;-74
2023/01/30 00:31:20;;;;;;;70.07;31.90;;;4.10;99.90;;;;;;5038762;28;20060;-75
2023/01/30 00:33:45;;;;;;;63.33;31.88;;;4.20;99.90;;;;;;5045620;28;20493;-74
2023/01/30 00:36:11;;;;;;;71.70;32.60;;;4.20;99.90;;;;;;5009349;28;20119;-74
2023/01/30 00:38:37;;;;;;;69.45;31.38;;;4.20;99.90;;;;;;5040568;28;20394;-76
2023/01/30 00:41:03;;;;;;;63.00;31.13;;;4.20;99.90;;;;;;5031446;28;20100;-75
2023/01/30 00:49:16;;;;;;;58.95;30.80;;;4.30;99.90;;;;;;5029442;28;20048;-75
2023/01/30 00:51:41;;;;;;;62.28;30.75;;;4.30;99.90;;;;;;5028006;28;20030;-75
2023/01/30 00:54:07;;;;;;;70.10;32.20;;;4.30;99.90;;;;;;5007099;28;20053;-74
2023/01/30 00:56:33;;;;;;;68.57;30.45;;;4.30;99.90;;;;;;5027843;28;20052;-75
2023/01/30 00:58:59;;;;;;;61.50;30.30;;;4.40;99.90;;;;;;5029831;28;20033;-76
2023/01/30 01:01:26;;;;;;;60.60;28.67;;;4.40;99.90;;;;;;5006450;28;20310;-75
2023/01/30 01:03:54;;;;;;;58.58;29.20;;;4.40;99.90;;;;;;5025978;28;20025;-75
2023/01/30 01:06:19;;;;;;;61.72;27.40;;;4.40;99.90;;;;;;5027696;28;20036;-77
2023/01/30 01:08:45;;;;;;;55.78;27.30;;;4.40;99.90;;;;;;5024330;28;20381;-75
2023/01/30 01:11:22;;;;;;;60.85;28.33;;;4.40;99.90;;;;;;5024812;28;20044;-74
2023/01/30 01:13:50;;;;;;;57.40;27.67;;;4.40;99.90;;;;;;5029150;28;20065;-76
2023/01/30 01:16:16;;;;;;;64.18;28.58;;;4.50;99.90;;;;;;5016956;28;20040;-75
2023/01/30 01:18:41;;;;;;;60.92;28.95;;;4.50;99.90;;;;;;5034436;28;20501;-76
2023/01/30 01:21:07;;;;;;;55.35;27.40;;;4.50;99.90;;;;;;5009045;28;20128;-74
2023/01/30 01:23:33;;;;;;;62.15;30.38;;;4.50;99.90;;;;;;5035451;28;20095;-76
2023/01/30 01:26:02;;;;;;;56.85;29.63;;;4.50;99.90;;;;;;5036448;28;20022;-76
2023/01/30 01:28:27;;;;;;;60.92;27.98;;;4.50;99.90;;;;;;5038875;28;20051;-75
2023/01/30 01:30:53;;;;;;;60.65;29.73;;;4.60;99.90;;;;;;5036072;28;20116;-75
2023/01/30 01:33:19;;;;;;;54.22;27.25;;;4.60;99.90;;;;;;5036270;28;20037;-75
2023/01/30 01:35:46;;;;;;;54.10;26.05;;;4.60;99.90;;;;;;5011996;28;20657;-74
2023/01/30 01:38:12;;;;;;;59.72;26.67;;;4.60;99.90;;;;;;5007400;28;20437;-75
2023/01/30 01:43:24;;;;;;;55.20;26.35;;;4.60;99.90;;;;;;5039503;28;20156;-75
2023/01/30 01:45:56;;;;;;;54.72;25.83;;;4.70;99.90;;;;;;5038626;28;20037;-76
2023/01/30 01:48:27;;;;;;;55.72;27.17;;;4.70;99.90;;;;;;5037030;28;20025;-75
2023/01/30 01:51:07;;;;;;;52.72;26.25;;;4.70;99.90;;;;;;5020080;28;20153;-75
2023/01/30 01:53:38;;;;;;;59.13;27.52;;;4.70;99.90;;;;;;5039097;28;20026;-75
2023/01/30 01:56:04;;;;;;;59.50;28.20;;;4.70;99.90;;;;;;5019651;28;20033;-76
2023/01/30 01:58:37;;;;;;;51.95;26.33;;;4.70;99.90;;;;;;5023833;28;20488;-75
2023/01/30 02:01:04;;;;;;;53.83;27.05;;;4.70;99.90;;;;;;5029851;28;20022;-75
2023/01/30 02:03:36;;;;;;;52.70;26.92;;;4.80;99.90;;;;;;5038391;28;20108;-75
2023/01/30 02:06:03;;;;;;;47.58;26.27;;;4.70;99.90;;;;;;5039601;28;20033;-75
2023/01/30 02:08:33;;;;;;;53.22;26.50;;;4.70;99.90;;;;;;5021139;28;20037;-75
2023/01/30 02:11:20;;;;;;;55.95;27.20;;;4.80;99.90;;;;;;5008837;28;20035;-74
2023/01/30 02:13:48;;;;;;;52.40;26.23;;;4.80;99.90;;;;;;5030741;28;20049;-76
2023/01/30 02:16:17;;;;;;;57.58;26.80;;;4.80;99.90;;;;;;5030560;28;20112;-75
2023/01/30 02:18:44;;;;;;;56.65;27.73;;;4.80;99.90;;;;;;4993815;28;20521;-74
2023/01/30 02:21:34;;;;;;;54.97;27.65;;;4.70;99.90;;;;;;5032870;28;20029;-75
2023/01/30 02:24:28;;;;;;;58.75;27.70;;;4.80;99.90;;;;;;5034173;28;20037;-75
2023/01/30 02:27:00;;;;;;;54.75;26.42;;;4.70;99.90;;;;;;5030356;28;20025;-75
2023/01/30 02:29:32;;;;;;;54.85;27.15;;;4.80;99.90;;;;;;5032373;28;20032;-78
2023/01/30 02:32:08;;;;;;;62.38;28.30;;;4.80;99.90;;;;;;5034199;28;20069;-75
2023/01/30 02:34:46;;;;;;;60.45;28.10;;;4.70;99.90;;;;;;4993632;28;20040;-75
2023/01/30 02:37:28;;;;;;;62.55;28.65;;;4.70;99.90;;;;;;5032703;28;20030;-74
2023/01/30 02:40:14;;;;;;;65.68;28.33;;;4.80;99.90;;;;;;5014036;28;20129;-75
2023/01/30 02:43:03;;;;;;;57.75;26.77;;;4.80;99.90;;;;;;4997201;28;20737;-75
2023/01/30 02:45:48;;;;;;;63.40;28.35;;;4.80;99.90;;;;;;5016818;28;20025;-76
2023/01/30 02:48:38;;;;;;;59.28;26.95;;;4.80;99.90;;;;;;5027019;28;20501;-75
2023/01/30 02:51:19;;;;;;;55.00;25.83;;;4.80;99.90;;;;;;5008965;28;20161;-75
2023/01/30 02:53:46;;;;;;;;;;;4.80;99.90;;;;;;5022588;28;20056;-74
2023/01/30 02:56:13;;;;;;;60.97;25.85;;;4.90;99.90;;;;;;5034668;28;19913;-74
2023/01/30 02:58:48;;;;;;;54.95;25.15;;;4.90;99.90;;;;;;5050478;28;20041;-78
2023/01/30 03:01:52;;;;;;;53.90;23.75;;;4.90;99.90;;;;;;5004498;28;20041;-75
2023/01/30 03:04:34;;;;;;;55.00;24.45;;;4.90;99.90;;;;;;5029686;28;20029;-74
2023/01/30 03:07:19;;;;;;;53.17;25.20;;;4.90;99.90;;;;;;5014653;28;20029;-74
2023/01/30 03:09:57;;;;;;;48.90;23.80;;;4.90;99.90;;;;;;5008706;28;20220;-73
2023/01/30 03:12:35;;;;;;;49.67;22.10;;;4.90;99.90;;;;;;5023686;28;20029;-74
2023/01/30 03:15:09;;;;;;;43.63;21.65;;;5.00;99.90;;;;;;5022292;28;20029;-75
2023/01/30 03:17:36;;;;;;;45.13;21.23;;;5.00;99.90;;;;;;5025959;28;20104;-74
2023/01/30 03:20:03;;;;;;;47.47;21.08;;;5.00;99.90;;;;;;5009397;28;20030;-74
2023/01/30 03:22:29;;;;;;;45.55;21.40;;;5.00;99.90;;;;;;5027766;28;20033;-74
2023/01/30 03:24:54;;;;;;;41.40;20.52;;;5.10;99.90;;;;;;5026557;28;20017;-74
2023/01/30 03:27:21;;;;;;;45.05;20.92;;;5.00;99.90;;;;;;5023789;28;20076;-74
2023/01/30 03:29:47;;;;;;;41.40;20.45;;;5.10;99.90;;;;;;5027012;28;20539;-73
2023/01/30 03:32:13;;;;;;;38.03;18.83;;;5.10;99.90;;;;;;5025362;28;20233;-74
2023/01/30 03:34:39;;;;;;;46.10;20.35;;;5.10;99.90;;;;;;5027987;28;20522;-74
2023/01/30 03:37:05;;;;;;;41.63;19.45;;;5.10;99.90;;;;;;5010694;28;20067;-73
2023/01/30 03:39:31;;;;;;;39.40;18.42;;;5.20;99.90;;;;;;5008253;28;20405;-76
2023/01/30 03:41:57;;;;;;;36.58;17.67;;;5.20;99.90;;;;;;5027169;28;20032;-75
2023/01/30 03:44:22;;;;;;;44.33;20.02;;;5.20;99.90;;;;;;5026558;28;20025;-74
2023/01/30 03:46:48;;;;;;;42.03;18.60;;;5.20;99.90;;;;;;5025678;28;20505;-74
2023/01/30 03:49:14;;;;;;;36.60;18.13;;;5.20;99.90;;;;;;5026121;28;20064;-73
2023/01/30 03:51:39;;;;;;;37.60;18.02;;;5.30;99.90;;;;;;5025081;28;20045;-75
2023/01/30 03:54:05;;;;;;;33.17;16.40;;;5.30;99.90;;;;;;5027321;28;20092;-74
2023/01/30 03:56:31;;;;;;;34.08;16.42;;;5.30;99.90;;;;;;5009473;28;20030;-75
2023/01/30 03:58:58;;;;;;;32.80;16.70;;;5.30;99.90;;;;;;5023751;28;20041;-75
2023/01/30 04:01:23;;;;;;;33.85;15.80;;;5.30;99.90;;;;;;5025976;28;20030;-75
2023/01/30 04:03:49;;;;;;;34.35;16.05;;;5.30;99.90;;;;;;5024690;28;20045;-74
2023/01/30 04:06:15;;;;;;;32.38;15.68;;;5.30;99.90;;;;;;5023370;28;20025;-74
2023/01/30 04:08:41;;;;;;;35.15;16.13;;;5.30;99.90;;;;;;5008920;28;20098;-76
2023/01/30 04:11:06;;;;;;;34.50;15.85;;;5.40;99.90;;;;;;5008972;28;20031;-75
2023/01/30 04:13:32;;;;;;;28.95;13.88;;;5.30;99.90;;;;;;5029128;28;20037;-74
2023/01/30 04:16:23;;;;;;;29.48;13.85;;;5.40;99.90;;;;;;5011199;28;20037;-74
2023/01/30 04:18:49;;;;;;;;;;;5.40;99.90;;;;;;5034949;28;20493;-75
2023/01/30 04:21:15;;;;;;;31.27;13.23;;;5.40;99.90;;;;;;5026622;28;19909;-73
2023/01/30 04:23:41;;;;;;;25.33;11.85;;;5.50;99.90;;;;;;5023054;28;20029;-74
2023/01/30 04:26:08;;;;;;;28.38;10.80;;;5.50;99.90;;;;;;5025377;28;20056;-73
2023/01/30 04:28:34;;;;;;;21.63;9.00;;;5.50;99.90;;;;;;5008731;28;20040;-74
2023/01/30 04:31:00;;;;;;;19.40;7.95;;;5.60;99.90;;;;;;5026499;28;20037;-74
2023/01/30 04:33:26;;;;;;;18.88;8.02;;;5.60;99.90;;;;;;5026295;28;20026;-74
2023/01/30 04:35:58;;;;;;;16.88;6.97;;;5.60;99.90;;;;;;5026047;28;20098;-74
2023/01/30 04:38:24;;;;;;;20.13;8.35;;;5.60;99.90;;;;;;5021008;28;20429;-75
2023/01/30 04:40:52;;;;;;;20.35;7.65;;;5.60;99.90;;;;;;4993208;28;20669;-74
2023/01/30 04:43:18;;;;;;;18.45;7.22;;;5.60;99.90;;;;;;5026965;28;20021;-74
2023/01/30 04:45:49;;;;;;;18.08;7.47;;;5.60;99.90;;;;;;5013401;28;20035;-74
2023/01/30 04:48:16;;;;;;;17.17;7.20;;;5.60;99.90;;;;;;5021322;28;20072;-73
2023/01/30 04:50:43;;;;;;;14.95;6.50;;;5.60;99.90;;;;;;5025248;28;20057;-73
2023/01/30 04:53:10;;;;;;;21.48;7.05;;;5.50;99.90;;;;;;5027506;28;20068;-73
2023/01/30 04:55:36;;;;;;;18.73;5.93;;;5.50;99.90;;;;;;5010007;28;20022;-74
2023/01/30 04:58:02;;;;;;;17.88;6.32;;;5.50;99.90;;;;;;5019273;28;20030;-74
2023/01/30 05:00:28;;;;;;;15.85;5.28;;;5.50;99.90;;;;;;5017838;28;20041;-73
2023/01/30 05:02:57;;;;;;;15.32;4.18;;;5.50;99.90;;;;;;5033364;28;20052;-74
2023/01/30 05:05:24;;;;;;;14.85;4.70;;;5.40;99.90;;;;;;5035088;28;20022;-74
2023/01/30 05:07:50;;;;;;;9.63;4.30;;;5.50;99.90;;;;;;5017019;28;20556;-74
2023/01/30 05:10:16;;;;;;;15.85;4.22;;;5.40;99.90;;;;;;5038727;28;20037;-74
2023/01/30 05:12:42;;;;;;;11.18;3.90;;;5.40;99.90;;;;;;5045485;28;20520;-74
2023/01/30 05:15:08;;;;;;;12.45;3.70;;;5.40;99.90;;;;;;5044187;28;20033;-73
2023/01/30 05:17:34;;;;;;;13.98;3.33;;;5.40;99.90;;;;;;5010717;28;20033;-74
2023/01/30 05:20:00;;;;;;;11.63;3.50;;;5.40;99.90;;;;;;5012563;28;20033;-74
2023/01/30 05:22:27;;;;;;;14.70;3.03;;;5.40;99.90;;;;;;5025726;28;20029;-75
2023/01/30 05:24:54;;;;;;;21.42;4.15;;;5.40;99.90;;;;;;5046366;28;20085;-74
2023/01/30 05:27:20;;;;;;;12.52;3.45;;;5.40;99.90;;;;;;5011698;28;20017;-73
2023/01/30 05:29:47;;;;;;;16.17;2.70;;;5.40;99.90;;;;;;5045334;28;20045;-75
2023/01/30 05:32:14;;;;;;;21.02;3.40;;;5.40;99.90;;;;;;5033414;28;20515;-74
2023/01/30 05:34:40;;;;;;;12.93;2.65;;;5.40;99.90;;;;;;5015651;28;20044;-74
2023/01/30 05:37:06;;;;;;;13.00;2.47;;;5.40;99.90;;;;;;5012150;28;20025;-74
2023/01/30 05:39:32;;;;;;;14.70;3.25;;;5.30;99.90;;;;;;5028261;28;20116;-75
2023/01/30 05:41:58;;;;;;;16.52;2.33;;;5.30;99.90;;;;;;5005569;28;20049;-74
2023/01/30 05:44:24;;;;;;;18.50;2.97;;;5.30;99.90;;;;;;5031471;28;20111;-75
2023/01/30 05:46:49;;;;;;;18.00;2.83;;;5.30;99.90;;;;;;5019213;28;20021;-76
2023/01/30 05:49:15;;;;;;;15.60;2.80;;;5.30;99.90;;;;;;5033871;28;20634;-75
2023/01/30 05:51:41;;;;;;;14.75;2.70;;;5.30;99.90;;;;;;5031361;28;20068;-75
2023/01/30 05:54:07;;;;;;;20.42;2.63;;;5.20;99.90;;;;;;5013755;28;20045;-76
2023/01/30 05:56:33;;;;;;;14.88;2.50;;;5.20;99.90;;;;;;5026272;28;20033;-75
2023/01/30 05:59:01;;;;;;;19.98;2.50;;;5.20;99.90;;;;;;5022970;28;20108;-74
2023/01/30 06:01:28;;;;;;;16.52;2.15;;;5.10;99.90;;;;;;5042816;28;20026;-75
2023/01/30 06:03:54;;;;;;;17.05;2.40;;;5.10;99.90;;;;;;5042634;28;20108;-75
2023/01/30 06:06:21;;;;;;;19.90;3.10;;;5.00;99.90;;;;;;5030610;28;20702;-75
2023/01/30 06:08:51;;;;;;;16.90;2.53;;;5.00;99.90;;;;;;5026879;28;20569;-74
2023/01/30 06:11:17;;;;;;;12.20;2.13;;;4.90;99.90;;;;;;5025726;28;20068;-74
2023/01/30 06:13:43;;;;;;;19.90;2.45;;;4.90;99.90;;;;;;5024665;28;20426;-72
2023/01/30 06:16:11;;;;;;;16.63;2.67;;;4.90;99.90;;;;;;5011573;28;20056;-73
2023/01/30 06:18:38;;;;;;;12.95;2.65;;;4.90;99.90;;;;;;5033129;28;20497;-75
2023/01/30 06:21:04;;;;;;;20.38;3.03;;;4.90;99.90;;;;;;5029479;28;20045;-73
2023/01/30 06:23:31;;;;;;;14.77;2.22;;;4.90;99.90;;;;;;5008906;28;20029;-73
2023/01/30 06:25:57;;;;;;;17.10;1.90;;;4.80;99.90;;;;;;5011206;28;20128;-74
2023/01/30 06:28:24;;;;;;;16.25;2.58;;;4.80;99.90;;;;;;5027119;28;20109;-75
2023/01/30 06:30:50;;;;;;;17.70;2.50;;;4.80;99.90;;;;;;5039035;28;20824;-74
2023/01/30 06:33:16;;;;;;;12.43;2.22;;;4.80;99.90;;;;;;5012712;28;20025;-74
2023/01/30 06:35:43;;;;;;;19.00;2.47;;;4.80;99.90;;;;;;5015573;28;20067;-74
2023/01/30 06:38:10;;;;;;;14.55;3.05;;;4.70;99.90;;;;;;5030037;28;20041;-74
2023/01/30 06:40:40;;;;;;;16.05;2.08;;;4.70;99.90;;;;;;5021168;28;20501;-73
2023/01/30 06:43:06;;;;;;;20.25;2.83;;;4.70;99.90;;;;;;5010475;28;20421;-74
2023/01/30 06:45:32;;;;;;;18.83;2.35;;;4.70;99.90;;;;;;5039784;28;20105;-74
2023/01/30 06:47:58;;;;;;;17.83;2.95;;;4.70;99.90;;;;;;5008628;28;20104;-74
2023/01/30 06:50:26;;;;;;;16.60;3.17;;;4.70;99.90;;;;;;4986139;28;1259582;-75
2023/01/30 06:52:53;;;;;;;19.30;3.13;;;4.70;99.90;;;;;;5003050;28;20087;-72
2023/01/30 06:55:22;;;;;;;16.70;2.15;;;4.70;99.90;;;;;;5020945;28;20053;-75
2023/01/30 06:57:48;;;;;;;17.15;3.40;;;4.70;99.90;;;;;;5005382;28;20121;-71
2023/01/30 07:00:19;;;;;;;21.20;2.95;;;4.70;99.90;;;;;;5019925;28;20130;-69
2023/01/30 07:02:45;;;;;;;24.43;2.57;;;4.70;99.90;;;;;;5025628;28;20138;-71
2023/01/30 07:05:11;;;;;;;15.63;2.83;;;4.70;99.90;;;;;;5027304;28;20040;-69
2023/01/30 07:07:38;;;;;;;19.90;4.25;;;4.70;99.90;;;;;;5020728;28;20021;-68
2023/01/30 07:10:06;;;;;;;17.95;2.85;;;4.70;99.90;;;;;;5026215;28;20041;-69
2023/01/30 07:12:32;;;;;;;20.15;2.95;;;4.70;99.90;;;;;;5007601;28;20029;-76
2023/01/30 07:14:58;;;;;;;20.65;2.85;;;4.70;99.90;;;;;;4994847;28;20079;-70
2023/01/30 07:17:24;;;;;;;16.38;3.63;;;4.70;99.90;;;;;;5024548;28;20139;-69
2023/01/30 07:19:50;;;;;;;18.05;2.80;;;4.70;99.90;;;;;;5003365;28;20075;-72
2023/01/30 07:22:16;;;;;;;18.67;3.08;;;4.70;99.90;;;;;;5020904;28;20021;-71
2023/01/30 07:24:43;;;;;;;18.55;3.05;;;4.70;99.90;;;;;;5040066;28;20029;-73
2023/01/30 07:27:10;;;;;;;22.52;3.20;;;4.70;99.90;;;;;;5023356;28;20091;-76
2023/01/30 07:29:37;;;;;;;19.35;3.15;;;4.70;99.90;;;;;;5027816;28;20049;-73
2023/01/30 07:32:04;;;;;;;16.45;2.60;;;4.70;99.90;;;;;;5026739;28;20029;-73
2023/01/30 07:34:30;;;;;;;23.60;2.90;;;4.80;99.90;;;;;;5006967;28;20494;-73
2023/01/30 07:36:56;;;;;;;26.50;3.30;;;5.60;99.90;;;;;;5024059;28;20033;-74
2023/01/30 07:39:22;;;;;;;21.38;3.08;;;5.20;99.90;;;;;;5003140;28;20033;-70
2023/01/30 07:41:48;;;;;;;20.38;2.65;;;5.00;99.90;;;;;;5007241;28;20028;-70
2023/01/30 07:44:15;;;;;;;21.70;2.67;;;4.80;99.90;;;;;;5033538;28;20481;-75
2023/01/30 07:46:41;;;;;;;30.45;4.07;;;4.80;99.90;;;;;;5021475;28;20053;-71
2023/01/30 07:49:08;;;;;;;16.63;3.90;;;4.70;99.90;;;;;;5022809;28;20064;-69
2023/01/30 07:51:34;;;;;;;28.25;4.40;;;4.80;99.90;;;;;;5004520;28;20148;-72
2023/01/30 07:54:00;;;;;;;41.83;4.75;;;4.80;99.90;;;;;;5036830;28;20108;-72
2023/01/30 07:56:27;;;;;;;29.80;4.82;;;4.90;99.90;;;;;;5022536;28;20051;-72
2023/01/30 07:58:56;;;;;;;39.17;5.00;;;4.90;99.90;;;;;;5017903;28;20044;-71
2023/01/30 08:01:22;;;;;;;39.58;5.28;;;4.90;99.90;;;;;;5016363;28;20049;-72
2023/01/30 08:03:49;;;;;;;36.42;5.70;;;5.00;99.90;;;;;;5037097;28;20467;-71
2023/01/30 08:06:17;;;;;;;35.47;5.55;;;5.00;99.90;;;;;;5020888;28;20112;-75
2023/01/30 08:08:43;;;;;;;36.90;6.22;;;5.10;99.90;;;;;;5006269;28;20072;-74
2023/01/30 08:11:09;;;;;;;32.95;5.32;;;5.10;99.90;;;;;;5006276;28;20030;-73
2023/01/30 08:13:35;;;;;;;34.47;5.10;;;5.00;99.90;;;;;;5021141;28;20052;-70
2023/01/30 08:16:04;;;;;;;52.17;5.95;;;5.10;99.90;;;;;;5020443;28;20049;-75
2023/01/30 08:18:30;;;;;;;37.42;5.28;;;5.10;99.90;;;;;;4991485;28;20037;-77
2023/01/30 08:21:01;;;;;;;26.38;4.57;;;5.10;99.90;;;;;;5013132;28;20032;-76
2023/01/30 08:23:27;;;;;;;43.22;4.88;;;5.10;99.90;;;;;;5013222;28;20100;-76
2023/01/30 08:25:57;;;;;;;49.80;5.93;;;5.10;99.90;;;;;;5039391;28;20029;-75
2023/01/30 08:28:24;;;;;;;37.40;5.68;;;5.10;99.90;;;;;;5029063;28;20025;-75
2023/01/30 08:30:53;;;;;;;38.40;4.53;;;5.10;99.90;;;;;;5032645;28;20342;-75
2023/01/30 08:33:21;;;;;;;33.00;5.32;;;5.10;99.90;;;;;;5031831;28;20041;-75
2023/01/30 08:35:49;;;;;;;32.00;4.85;;;5.10;99.90;;;;;;5028394;28;20125;-74
2023/01/30 08:38:17;;;;;;;37.42;5.05;;;5.10;99.90;;;;;;5026407;28;20053;-76
2023/01/30 08:40:43;;;;;;;31.33;4.78;;;5.20;99.90;;;;;;5010728;28;20033;-75
2023/01/30 08:43:08;;;;;;;40.63;5.90;;;5.20;99.90;;;;;;5025211;28;20022;-76
2023/01/30 08:45:35;;;;;;;30.75;4.55;;;5.20;99.90;;;;;;5013943;28;20098;-77
2023/01/30 08:48:03;;;;;;;45.45;5.65;;;5.30;99.90;;;;;;4990840;28;20025;-76
2023/01/30 08:50:30;;;;;;;35.03;6.18;;;5.30;99.90;;;;;;5017206;28;20037;-74
2023/01/30 08:52:56;;;;;;;32.85;5.03;;;5.30;99.90;;;;;;5025297;28;20112;-77
2023/01/30 08:55:22;;;;;;;32.55;5.03;;;5.30;99.90;;;;;;5000659;28;20448;-75
2023/01/30 08:57:48;;;;;;;41.75;5.18;;;5.30;99.90;;;;;;5028176;28;20041;-74
2023/01/30 09:00:14;;;;;;;25.08;4.47;;;5.30;99.90;;;;;;5026924;28;20041;-76
2023/01/30 09:02:40;;;;;;;32.05;5.40;;;5.30;99.90;;;;;;4996753;28;20028;-76
2023/01/30 09:05:07;;;;;;;33.95;5.35;;;5.40;99.90;;;;;;5012060;28;20029;-75
2023/01/30 09:07:33;;;;;;;31.70;4.93;;;5.30;99.90;;;;;;5004557;28;20072;-74
2023/01/30 09:09:59;;;;;;;34.00;5.13;;;5.40;99.90;;;;;;5005740;28;20034;-74
2023/01/30 09:12:25;;;;;;;41.85;5.13;;;5.40;99.90;;;;;;5016093;28;20107;-75
2023/01/30 09:14:56;;;;;;;30.05;4.43;;;5.40;99.90;;;;;;5016888;28;20124;-74
2023/01/30 09:17:22;;;;;;;;;;;5.40;99.90;;;;;;5040689;28;20111;-75
2023/01/30 09:19:48;;;;;;;30.83;4.50;;;5.40;99.90;;;;;;5025303;28;21281;-74
2023/01/30 09:22:14;;;;;;;36.45;5.32;;;5.50;99.90;;;;;;5005418;28;20033;-74
2023/01/30 09:24:40;;;;;;;34.47;4.93;;;5.40;99.90;;;;;;5007078;28;20028;-74
2023/01/30 09:27:09;;;;;;;36.25;7.22;;;5.50;99.90;;;;;;5022418;28;20025;-76
2023/01/30 09:29:35;;;;;;;36.50;5.25;;;5.40;99.90;;;;;;5010489;28;20124;-76
2023/01/30 09:32:02;;;;;;;28.00;4.82;;;5.50;99.90;;;;;;5014246;28;20064;-77
2023/01/30 09:34:28;;;;;;;32.53;5.63;;;5.50;99.90;;;;;;4994927;28;20524;-73
2023/01/30 09:37:01;;;;;;;25.23;4.72;;;5.50;99.90;;;;;;5028796;28;20037;-76
2023/01/30 09:39:28;;;;;;;34.95;5.50;;;5.50;99.90;;;;;;5015641;28;20025;-76
2023/01/30 09:42:09;;;;;;;38.70;5.43;;;5.50;99.90;;;;;;5012563;28;20037;-75
2023/01/30 09:44:53;;;;;;;;;;;5.50;99.90;;;;;;5037088;28;20056;-77
2023/01/30 09:47:27;;;;;;;37.30;4.90;;;5.50;99.90;;;;;;5048903;28;20336;-76
2023/01/30 09:50:08;;;;;;;47.50;5.43;;;5.60;99.90;;;;;;5013586;28;20487;-74
2023/01/30 09:52:57;;;;;;;28.90;6.82;;;5.70;99.90;;;;;;5024010;28;20037;-74
2023/01/30 09:55:29;;;;;;;29.63;5.28;;;5.90;99.90;;;;;;5040808;28;20033;-74
2023/01/30 09:57:58;;;;;;;46.08;5.50;;;6.00;99.90;;;;;;5029160;28;20494;-74
2023/01/30 10:00:36;;;;;;;36.95;6.10;;;6.00;99.90;;;;;;5025802;28;20064;-75
2023/01/30 10:03:07;;;;;;;32.85;5.05;;;6.00;99.90;;;;;;5023468;28;20493;-75
2023/01/30 10:05:54;;;;;;;32.28;4.38;;;6.00;99.90;;;;;;5021589;28;20127;-76
2023/01/30 10:08:38;;;;;;;34.65;5.20;;;6.00;99.90;;;;;;4990155;28;20033;-76
2023/01/30 10:11:32;;;;;;;37.63;5.65;;;5.80;99.90;;;;;;5025260;28;20025;-75
2023/01/30 10:14:18;;;;;;;39.33;5.40;;;5.70;99.90;;;;;;5027136;28;20043;-74
2023/01/30 10:16:53;;;;;;;29.35;4.43;;;5.60;99.90;;;;;;5005720;28;20028;-74
2023/01/30 10:19:40;;;;;;;34.15;5.82;;;5.50;99.90;;;;;;5024618;28;20037;-74
2023/01/30 10:22:26;;;;;;;37.95;5.57;;;5.50;99.90;;;;;;5019414;28;20469;-74
2023/01/30 10:25:18;;;;;;;33.67;5.43;;;5.50;99.90;;;;;;5006995;28;20625;-75
2023/01/30 10:27:56;;;;;;;20.70;3.55;;;5.40;99.90;;;;;;4998014;28;20116;-75
2023/01/30 10:30:22;;;;;;;21.08;3.40;;;5.20;99.90;;;;;;5012516;28;20025;-77
2023/01/30 10:33:01;;;;;;;16.50;3.13;;;5.00;99.90;;;;;;4993069;28;20071;-74
2023/01/30 10:35:34;;;;;;;11.13;2.00;;;4.90;99.90;;;;;;5009583;28;20087;-74
2023/01/30 10:38:25;;;;;;;12.35;1.67;;;5.50;99.90;;;;;;5026803;28;20112;-74
2023/01/30 10:40:59;;;;;;;16.67;2.83;;;5.10;99.90;;;;;;5009698;28;20293;-74
2023/01/30 10:43:31;;;;;;;14.80;2.47;;;4.90;99.90;;;;;;5026968;28;20026;-74
2023/01/30 10:46:18;;;;;;;39.50;7.57;;;4.90;99.90;;;;;;5011844;28;20060;-74
2023/01/30 10:48:52;;;;;;;22.27;3.00;;;5.00;99.90;;;;;;5029590;28;20034;-75
2023/01/30 10:51:26;;;;;;;33.67;4.60;;;5.20;99.90;;;;;;5043558;28;20056;-74
2023/01/30 10:54:16;;;;;;;27.75;3.85;;;5.30;99.90;;;;;;5028781;28;20041;-75
2023/01/30 10:56:48;;;;;;;22.08;2.67;;;5.30;99.90;;;;;;5045348;28;21116;-75
2023/01/30 10:59:49;;;;;;;24.65;3.72;;;5.20;99.90;;;;;;5043888;28;20072;-74
2023/01/30 11:02:26;;;;;;;20.98;3.80;;;5.10;99.90;;;;;;5029725;28;20382;-74
2023/01/30 11:04:55;;;;;;;26.80;3.67;;;5.00;99.90;;;;;;5024653;28;20025;-75
2023/01/30 11:07:20;;;;;;;27.73;4.28;;;5.00;99.90;;;;;;5042533;28;20458;-76
2023/01/30 11:09:47;;;;;;;28.55;4.03;;;5.00;99.90;;;;;;5009732;28;20061;-77
2023/01/30 11:12:14;;;;;;;19.30;3.53;;;4.90;99.90;;;;;;5026422;28;20030;-75
2023/01/30 11:14:51;;;;;;;13.70;2.70;;;4.90;99.90;;;;;;5039043;28;20030;-73
2023/01/30 11:17:19;;;;;;;13.00;2.17;;;4.80;99.90;;;;;;5004587;28;20120;-74
2023/01/30 11:19:53;;;;;;;13.25;2.30;;;4.80;99.90;;;;;;5024466;28;20057;-73
2023/01/30 11:22:19;;;;;;;17.27;2.70;;;4.80;99.90;;;;;;5023412;28;20036;-73
2023/01/30 11:24:45;;;;;;;22.25;2.30;;;4.80;99.90;;;;;;5023448;28;20438;-73
2023/01/30 11:27:33;;;;;;;20.95;3.25;;;4.80;99.90;;;;;;5009091;28;20489;-74
2023/01/30 11:30:19;;;;;;;20.20;3.17;;;4.80;99.90;;;;;;5026827;28;20105;-73
2023/01/30 11:32:47;;;;;;;19.10;2.42;;;4.80;99.90;;;;;;5006671;28;20030;-75
2023/01/30 11:35:13;;;;;;;14.30;2.15;;;4.70;99.90;;;;;;5005592;28;20037;-74
2023/01/30 11:37:41;;;;;;;10.77;1.50;;;4.70;99.90;;;;;;5008002;28;20025;-76
2023/01/30 11:40:16;;;;;;;11.00;1.48;;;4.70;99.90;;;;;;5006314;28;20037;-74
2023/01/30 11:42:48;;;;;;;7.25;1.35;;;4.60;99.90;;;;;;5025146;28;20042;-74
2023/01/30 11:45:14;;;;;;;9.10;1.30;;;4.60;99.90;;;;;;5014257;28;20097;-74
2023/01/30 11:47:49;;;;;;;11.02;2.03;;;4.60;99.90;;;;;;5016828;28;20482;-74
2023/01/30 11:50:17;;;;;;;9.00;1.48;;;4.70;99.90;;;;;;5008985;28;20037;-74
2023/01/30 11:52:45;;;;;;;18.90;2.25;;;4.70;99.90;;;;;;5039954;28;20025;-74
2023/01/30 11:55:15;;;;;;;11.20;2.08;;;4.80;99.90;;;;;;5028451;28;20037;-78
2023/01/30 11:57:55;;;;;;;11.60;1.70;;;4.90;99.90;;;;;;4987265;28;20033;-74
2023/01/30 12:00:35;;;;;;;13.32;1.98;;;4.80;99.90;;;;;;5023298;28;20041;-75
2023/01/30 12:03:08;;;;;;;21.08;1.80;;;4.90;99.90;;;;;;4992027;28;20025;-74
2023/01/30 12:05:41;;;;;;;17.10;2.25;;;4.90;99.90;;;;;;5039188;28;20042;-74
2023/01/30 12:08:18;;;;;;;22.10;2.20;;;5.00;99.90;;;;;;5024405;28;20025;-73
2023/01/30 12:10:51;;;;;;;25.17;3.20;;;5.00;99.90;;;;;;5005233;28;20520;-73
2023/01/30 12:13:27;;;;;;;21.90;2.33;;;5.00;99.90;;;;;;4991477;28;20033;-74
2023/01/30 12:16:14;;;;;;;18.95;2.75;;;5.10;99.90;;;;;;5005937;28;20048;-74
2023/01/30 12:19:05;;;;;;;20.83;2.88;;;5.10;99.90;;;;;;5008056;28;20025;-77
2023/01/30 12:21:57;;;;;;;20.33;3.45;;;5.20;99.90;;;;;;4992304;28;20037;-74
2023/01/30 12:24:27;;;;;;;19.80;2.95;;;5.70;99.90;;;;;;5030391;28;20032;-74
2023/01/30 12:27:02;;;;;;;18.20;2.47;;;5.50;99.90;;;;;;5042145;28;20025;-75
2023/01/30 12:29:37;;;;;;;23.38;3.58;;;5.30;99.90;;;;;;4990987;28;20025;-76
2023/01/30 12:32:16;;;;;;;17.83;2.45;;;5.20;99.90;;;;;;5000184;28;20051;-75
2023/01/30 12:34:44;;;;;;;19.38;2.28;;;5.20;99.90;;;;;;5034816;28;20513;-80
2023/01/30 12:37:44;;;;;;;18.08;2.95;;;5.20;99.90;;;;;;5028945;28;20045;-75
2023/01/30 12:40:20;;;;;;;12.00;2.10;;;5.20;99.90;;;;;;5032262;28;20096;-76
2023/01/30 12:43:18;;;;;;;13.43;3.05;;;5.20;99.90;;;;;;4994471;28;20030;-74
2023/01/30 12:45:58;;;;;;;14.63;2.53;;;5.20;99.90;;;;;;5002891;28;20042;-73
2023/01/30 12:48:36;;;;;;;13.88;3.00;;;5.20;99.90;;;;;;5025656;28;20379;-73
2023/01/30 12:51:18;;;;;;;20.88;3.10;;;5.20;99.90;;;;;;5024255;28;20040;-73
2023/01/30 12:54:09;;;;;;;31.80;4.53;;;5.20;99.90;;;;;;5035980;28;20124;-73
2023/01/30 12:57:01;;;;;;;31.60;4.40;;;5.20;99.90;;;;;;5045338;28;20022;-74
2023/01/30 12:59:49;;;;;;;23.15;3.85;;;5.10;99.90;;;;;;5012357;28;20055;-76
2023/01/30 13:02:33;;;;;;;33.15;4.30;;;5.20;99.90;;;;;;5014185;28;20120;-73
2023/01/30 13:05:27;;;;;;;26.08;4.32;;;5.20;99.90;;;;;;5043299;28;20092;-74
2023/01/30 13:08:12;;;;;;;40.03;5.03;;;5.30;99.90;;;;;;5025067;28;20040;-74
2023/01/30 13:11:02;;;;;;;35.60;4.85;;;5.40;99.90;;;;;;5021048;28;20092;-75
2023/01/30 13:13:41;;;;;;;48.00;6.25;;;5.60;99.90;;;;;;5018441;28;20033;-75